createdAt,value
2022-09-03T00:01:45.532Z,1.23
2022-09-03T00:04:38.506Z,1.98
2022-09-03T00:07:11.713Z,2.17
2022-09-03T00:09:47.665Z,2.47
2022-09-03T00:12:28.739Z,1.70
2022-09-03T00:15:05.074Z,1.77
2022-09-03T00:17:50.620Z,1.60
2022-09-03T00:20:22.370Z,2.35
2022-09-03T00:22:53.378Z,1.50
2022-09-03T00:25:27.009Z,1.30
2022-09-03T00:27:58.050Z,1.30
2022-09-03T00:30:25.079Z,1.52
2022-09-03T00:33:03.202Z,1.50
2022-09-03T00:35:37.974Z,1.87
2022-09-03T00:38:06.343Z,2.00
2022-09-03T00:40:55.893Z,1.70
2022-09-03T00:43:41.253Z,1.87
2022-09-03T00:46:20.249Z,2.20
2022-09-03T00:49:03.054Z,1.60
2022-09-03T00:51:53.543Z,2.10
2022-09-03T00:54:33.091Z,1.98
2022-09-03T00:57:30.801Z,1.40
2022-09-03T01:00:11.287Z,1.50
2022-09-03T01:02:50.249Z,1.33
2022-09-03T01:05:41.770Z,1.50
2022-09-03T01:08:08.420Z,1.67
2022-09-03T01:11:17.050Z,1.87
2022-09-03T01:13:46.610Z,1.55
2022-09-03T01:16:35.730Z,1.87
2022-09-03T01:19:25.596Z,2.15
2022-09-03T01:22:23.620Z,2.17
2022-09-03T01:25:11.872Z,2.10
2022-09-03T01:28:20.041Z,1.77
2022-09-03T01:30:59.418Z,1.73
2022-09-03T01:33:41.169Z,1.90
2022-09-03T01:36:20.690Z,2.28
2022-09-03T01:39:42.788Z,1.90
2022-09-03T01:42:20.739Z,1.77
2022-09-03T01:44:58.426Z,2.37
2022-09-03T01:47:58.392Z,1.70
2022-09-03T01:50:50.667Z,1.42
2022-09-03T01:53:52.797Z,1.80
2022-09-03T01:56:26.018Z,1.73
2022-09-03T01:59:07.923Z,1.83
2022-09-03T02:01:43.879Z,2.37
2022-09-03T02:04:20.702Z,2.00
2022-09-03T02:06:49.041Z,1.55
2022-09-03T02:09:19.026Z,2.25
2022-09-03T02:11:53.705Z,1.83
2022-09-03T02:14:20.940Z,1.70
2022-09-03T02:16:47.682Z,2.28
2022-09-03T02:19:17.053Z,2.37
2022-09-03T02:21:52.095Z,1.90
2022-09-03T02:24:19.356Z,1.80
2022-09-03T02:26:47.052Z,1.80
2022-09-03T02:29:16.297Z,2.30
2022-09-03T02:31:44.337Z,1.62
2022-09-03T02:34:11.180Z,1.90
2022-09-03T02:36:42.690Z,2.00
2022-09-03T02:39:09.714Z,1.77
2022-09-03T02:41:36.460Z,1.60
2022-09-03T02:44:12.107Z,1.90
2022-09-03T02:46:52.417Z,1.85
2022-09-03T02:49:19.203Z,1.85
2022-09-03T02:51:46.000Z,2.65
2022-09-03T02:54:16.723Z,1.70
2022-09-03T02:56:48.471Z,1.50
2022-09-03T02:59:15.433Z,1.30
2022-09-03T03:01:42.302Z,1.42
2022-09-03T03:04:09.358Z,1.90
2022-09-03T03:06:36.160Z,1.95
2022-09-03T03:09:05.980Z,1.90
2022-09-03T03:14:00.159Z,1.33
2022-09-03T03:16:27.028Z,2.08
2022-09-03T03:18:53.856Z,1.50
2022-09-03T03:21:20.659Z,2.10
2022-09-03T03:23:47.384Z,2.03
2022-09-03T03:26:20.386Z,1.58
2022-09-03T03:28:49.087Z,1.73
2022-09-03T03:31:21.545Z,1.95
2022-09-03T03:33:53.394Z,1.75
2022-09-03T03:36:21.510Z,2.03
2022-09-03T03:38:48.401Z,1.70
2022-09-03T03:41:17.171Z,1.65
2022-09-03T03:43:44.922Z,2.35
2022-09-03T03:46:12.613Z,2.50
2022-09-03T03:48:39.489Z,1.87
2022-09-03T03:51:08.433Z,1.73
2022-09-03T03:53:36.874Z,1.53
2022-09-03T03:56:10.451Z,1.92
2022-09-03T03:58:38.292Z,1.65
2022-09-03T04:01:13.342Z,1.67
2022-09-03T04:03:40.565Z,2.10
2022-09-03T04:06:09.116Z,2.30
2022-09-03T04:08:37.995Z,1.62
2022-09-03T04:11:07.605Z,1.77
2022-09-03T04:13:36.536Z,1.77
2022-09-03T04:16:05.754Z,2.20
2022-09-03T04:18:32.979Z,1.60
2022-09-03T04:21:04.994Z,1.50
2022-09-03T04:23:33.156Z,1.62
2022-09-03T04:26:00.468Z,1.77
2022-09-03T04:28:27.812Z,1.70
2022-09-03T04:30:55.130Z,2.60
2022-09-03T04:33:25.111Z,1.65
2022-09-03T04:35:52.658Z,2.08
2022-09-03T04:38:19.503Z,1.35
2022-09-03T04:40:52.717Z,1.67
2022-09-03T04:43:19.478Z,1.42
2022-09-03T04:45:46.222Z,1.12
2022-09-03T04:48:13.646Z,1.70
2022-09-03T04:50:40.656Z,1.33
2022-09-03T04:53:08.305Z,1.40
2022-09-03T04:55:38.638Z,1.27
2022-09-03T04:58:08.078Z,2.12
2022-09-03T05:00:36.802Z,2.00
2022-09-03T05:03:05.269Z,1.25
2022-09-03T05:05:33.941Z,1.40
2022-09-03T05:08:04.337Z,1.20
2022-09-03T05:10:32.308Z,1.17
2022-09-03T05:13:01.379Z,1.30
2022-09-03T05:15:29.964Z,1.50
2022-09-03T05:17:59.282Z,1.73
2022-09-03T05:20:26.785Z,1.42
2022-09-03T05:22:53.654Z,1.30
2022-09-03T05:25:20.512Z,1.67
2022-09-03T05:27:47.297Z,2.00
2022-09-03T05:30:14.507Z,1.50
2022-09-03T05:32:41.806Z,1.40
2022-09-03T05:35:09.393Z,2.33
2022-09-03T05:37:36.189Z,2.37
2022-09-03T05:40:03.582Z,2.10
2022-09-03T05:42:32.438Z,1.90
2022-09-03T05:45:00.285Z,2.62
2022-09-03T05:47:27.048Z,2.20
2022-09-03T05:49:53.830Z,1.70
2022-09-03T05:52:21.866Z,1.75
2022-09-03T05:54:48.658Z,1.67
2022-09-03T05:57:16.150Z,1.37
2022-09-03T05:59:42.870Z,2.03
2022-09-03T06:02:09.751Z,1.80
2022-09-03T06:04:38.950Z,1.85
2022-09-03T06:07:05.694Z,1.65
2022-09-03T06:09:32.411Z,1.60
2022-09-03T06:12:00.028Z,1.65
2022-09-03T06:14:30.671Z,1.35
2022-09-03T06:16:57.442Z,1.55
2022-09-03T06:19:24.262Z,1.80
2022-09-03T06:21:51.301Z,1.58
2022-09-03T06:24:28.309Z,1.55
2022-09-03T06:26:56.817Z,1.73
2022-09-03T06:29:23.634Z,1.75
2022-09-03T06:31:51.090Z,1.67
2022-09-03T06:34:18.684Z,1.77
2022-09-03T06:36:46.384Z,1.90
2022-09-03T06:39:13.135Z,1.90
2022-09-03T06:41:40.280Z,2.83
2022-09-03T06:44:11.967Z,1.95
2022-09-03T06:46:42.771Z,1.85
2022-09-03T06:49:11.116Z,1.95
2022-09-03T06:51:39.098Z,1.77
2022-09-03T06:54:08.463Z,1.67
2022-09-03T06:56:40.189Z,1.50
2022-09-03T06:59:14.510Z,1.62
2022-09-03T07:01:44.435Z,2.15
2022-09-03T07:04:13.702Z,2.17
2022-09-03T07:06:42.802Z,2.08
2022-09-03T07:11:40.352Z,1.80
2022-09-03T07:14:07.135Z,1.77
2022-09-03T07:16:37.811Z,1.77
2022-09-03T07:19:09.334Z,2.22
2022-09-03T07:21:37.118Z,2.33
2022-09-03T07:24:05.832Z,2.65
2022-09-03T07:26:38.862Z,2.15
2022-09-03T07:29:07.999Z,2.03
2022-09-03T07:31:41.027Z,2.30
2022-09-03T07:34:10.840Z,2.17
2022-09-03T07:36:47.745Z,2.00
2022-09-03T07:39:16.708Z,1.80
2022-09-03T07:41:45.935Z,1.73
2022-09-03T07:44:20.126Z,2.65
2022-09-03T07:46:50.326Z,2.10
2022-09-03T07:49:17.479Z,1.98
2022-09-03T07:51:44.451Z,1.62
2022-09-03T07:54:11.873Z,2.20
2022-09-03T07:56:40.578Z,2.65
2022-09-03T07:59:08.165Z,2.12
2022-09-03T08:01:36.097Z,2.55
2022-09-03T08:04:04.413Z,2.30
2022-09-03T08:06:32.932Z,2.27
2022-09-03T08:09:05.403Z,1.87
2022-09-03T08:11:35.355Z,1.95
2022-09-03T08:14:06.754Z,1.75
2022-09-03T08:16:42.691Z,2.33
2022-09-03T08:19:11.527Z,2.20
2022-09-03T08:21:38.699Z,1.77
2022-09-03T08:24:06.638Z,2.35
2022-09-03T08:26:39.011Z,2.20
2022-09-03T08:29:06.799Z,2.47
2022-09-03T08:31:35.080Z,2.47
2022-09-03T08:34:05.038Z,2.05
2022-09-03T08:36:34.098Z,2.42
2022-09-03T08:39:10.284Z,2.20
2022-09-03T08:41:46.389Z,3.05
2022-09-03T08:44:47.961Z,1.75
2022-09-03T08:47:29.224Z,2.40
2022-09-03T08:50:13.665Z,2.35
2022-09-03T08:53:03.179Z,2.37
2022-09-03T08:55:56.168Z,2.53
2022-09-03T08:58:26.804Z,2.12
2022-09-03T09:01:13.853Z,2.15
2022-09-03T09:04:08.295Z,1.92
2022-09-03T09:07:05.831Z,1.87
2022-09-03T09:09:59.679Z,1.52
2022-09-03T09:12:48.237Z,2.30
2022-09-03T09:15:39.558Z,1.62
2022-09-03T09:18:14.094Z,2.37
2022-09-03T09:20:54.960Z,1.90
2022-09-03T09:23:38.370Z,1.70
2022-09-03T09:26:10.954Z,2.67
2022-09-03T09:28:39.119Z,1.55
2022-09-03T09:31:15.586Z,2.67
2022-09-03T09:33:42.881Z,1.37
2022-09-03T09:36:15.577Z,1.60
2022-09-03T09:38:43.679Z,1.27
2022-09-03T09:41:30.048Z,1.60
2022-09-03T09:44:08.075Z,1.77
2022-09-03T09:46:38.954Z,1.55
2022-09-03T09:49:29.216Z,1.48
2022-09-03T09:52:04.415Z,1.40
2022-09-03T09:54:31.352Z,1.50
2022-09-03T09:57:05.118Z,1.00
2022-09-03T09:59:34.316Z,1.02
2022-09-03T10:04:50.214Z,1.87
2022-09-03T10:07:27.343Z,1.35
2022-09-03T10:10:15.175Z,1.50
2022-09-03T10:12:51.972Z,1.60
2022-09-03T10:15:24.138Z,1.23
2022-09-03T10:18:08.589Z,1.23
2022-09-03T10:20:47.861Z,1.23
2022-09-03T10:23:30.745Z,1.90
2022-09-03T10:25:58.279Z,1.10
2022-09-03T10:28:30.478Z,1.25
2022-09-03T10:31:08.740Z,1.80
2022-09-03T10:33:42.672Z,1.40
2022-09-03T10:36:19.847Z,1.35
2022-09-03T10:38:53.153Z,1.70
2022-09-03T10:41:35.491Z,1.55
2022-09-03T10:44:13.522Z,1.45
2022-09-03T10:47:08.071Z,1.48
2022-09-03T10:50:00.109Z,1.90
2022-09-03T10:52:32.767Z,1.50
2022-09-03T10:55:31.714Z,1.90
2022-09-03T11:00:30.985Z,1.33
2022-09-03T11:03:57.163Z,1.50
2022-09-03T11:06:29.193Z,1.75
2022-09-03T11:09:07.583Z,1.73
2022-09-03T11:11:45.323Z,1.90
2022-09-03T11:14:16.874Z,1.83
2022-09-03T11:16:48.593Z,1.40
2022-09-03T11:19:19.268Z,1.60
2022-09-03T11:21:48.629Z,1.90
2022-09-03T11:24:24.911Z,1.75
2022-09-03T11:27:02.990Z,1.80
2022-09-03T11:30:15.542Z,1.83
2022-09-03T11:32:46.819Z,1.95
2022-09-03T11:35:41.189Z,1.52
2022-09-03T11:38:17.083Z,1.70
2022-09-03T11:41:26.189Z,1.77
2022-09-03T11:43:54.586Z,1.83
2022-09-03T11:46:21.989Z,1.60
2022-09-03T11:48:55.624Z,1.70
2022-09-03T11:51:25.398Z,1.52
2022-09-03T11:54:21.058Z,1.83
2022-09-03T11:56:49.896Z,1.20
2022-09-03T11:59:27.170Z,1.95
2022-09-03T12:02:34.707Z,2.25
2022-09-03T12:05:20.057Z,1.55
2022-09-03T12:08:11.037Z,1.70
2022-09-03T12:10:40.794Z,1.42
2022-09-03T12:13:40.631Z,1.50
2022-09-03T12:16:19.439Z,1.58
2022-09-03T12:18:49.476Z,1.40
2022-09-03T12:21:17.467Z,1.85
2022-09-03T12:23:48.100Z,2.12
2022-09-03T12:26:20.067Z,1.60
2022-09-03T12:28:50.154Z,1.40
2022-09-03T12:31:29.835Z,1.40
2022-09-03T12:34:02.165Z,1.48
2022-09-03T12:36:40.945Z,1.70
2022-09-03T12:42:25.290Z,1.30
2022-09-03T12:44:52.226Z,1.50
2022-09-03T12:47:38.044Z,2.05
2022-09-03T12:50:11.662Z,1.80
2022-09-03T12:52:41.715Z,1.55
2022-09-03T12:55:49.476Z,1.52
2022-09-03T12:58:20.990Z,1.42
2022-09-03T13:01:13.700Z,1.65
2022-09-03T13:03:50.503Z,1.50
2022-09-03T13:06:21.964Z,1.48
2022-09-03T13:08:57.263Z,1.15
2022-09-03T13:11:25.732Z,1.80
2022-09-03T13:14:11.297Z,1.70
2022-09-03T13:16:38.137Z,1.40
2022-09-03T13:19:25.074Z,1.40
2022-09-03T13:22:33.420Z,2.10
2022-09-03T13:25:05.824Z,1.40
2022-09-03T13:27:32.606Z,1.87
2022-09-03T13:30:19.438Z,1.40
2022-09-03T13:33:12.305Z,1.30
2022-09-03T13:36:10.119Z,1.35
2022-09-03T13:38:43.944Z,1.92
2022-09-03T13:41:32.571Z,1.50
2022-09-03T13:44:35.911Z,1.30
2022-09-03T13:47:26.542Z,1.12
2022-09-03T13:50:21.008Z,1.42
2022-09-03T13:53:02.902Z,1.48
2022-09-03T13:55:48.392Z,1.75
2022-09-03T13:58:43.295Z,1.42
2022-09-03T14:01:39.314Z,1.48
2022-09-03T14:04:19.931Z,1.73
2022-09-03T14:06:58.026Z,1.73
2022-09-03T14:09:35.057Z,1.40
2022-09-03T14:12:25.016Z,1.30
2022-09-03T14:15:18.475Z,1.80
2022-09-03T14:18:03.305Z,1.58
2022-09-03T14:20:53.984Z,1.58
2022-09-03T14:23:38.824Z,1.20
2022-09-03T14:26:07.632Z,1.40
2022-09-03T14:28:40.436Z,1.80
2022-09-03T14:31:19.437Z,1.40
2022-09-03T14:36:21.213Z,1.67
2022-09-03T14:39:13.214Z,1.65
2022-09-03T14:42:23.959Z,1.33
2022-09-03T14:44:56.791Z,1.20
2022-09-03T14:47:48.618Z,1.40
2022-09-03T14:50:46.559Z,1.73
2022-09-03T14:53:21.976Z,1.60
2022-09-03T14:56:07.217Z,1.48
2022-09-03T14:58:58.688Z,1.50
2022-09-03T15:01:29.572Z,1.70
2022-09-03T15:04:54.636Z,1.77
2022-09-03T15:07:28.110Z,1.52
2022-09-03T15:10:19.359Z,1.25
2022-09-03T15:12:55.296Z,1.15
2022-09-03T15:15:34.076Z,1.70
2022-09-03T15:18:12.785Z,1.70
2022-09-03T15:20:58.160Z,1.17
2022-09-03T15:23:43.735Z,1.42
2022-09-03T15:26:20.825Z,1.67
2022-09-03T15:29:40.582Z,1.48
2022-09-03T15:32:17.067Z,1.83
2022-09-03T15:34:49.132Z,1.40
2022-09-03T15:37:28.618Z,1.58
2022-09-03T15:40:50.141Z,1.65
2022-09-03T15:43:26.264Z,1.55
2022-09-03T15:45:58.511Z,1.52
2022-09-03T15:48:39.501Z,1.55
2022-09-03T15:51:29.003Z,1.40
2022-09-03T15:54:07.912Z,1.35
2022-09-03T15:56:38.633Z,1.50
2022-09-03T15:59:08.121Z,1.40
2022-09-03T16:04:16.001Z,1.30
2022-09-03T16:07:18.163Z,1.35
2022-09-03T16:10:24.208Z,1.45
2022-09-03T16:13:29.020Z,1.37
2022-09-03T16:16:34.245Z,1.20
2022-09-03T16:19:10.777Z,1.50
2022-09-03T16:21:50.926Z,1.30
2022-09-03T16:24:24.065Z,1.62
2022-09-03T16:26:58.199Z,1.55
2022-09-03T16:29:31.236Z,1.60
2022-09-03T16:32:39.666Z,1.40
2022-09-03T16:35:09.034Z,1.30
2022-09-03T16:37:45.433Z,1.73
2022-09-03T16:40:27.976Z,1.42
2022-09-03T16:43:00.741Z,1.58
2022-09-03T16:45:34.633Z,1.33
2022-09-03T16:48:04.458Z,1.62
2022-09-03T16:50:52.160Z,1.48
2022-09-03T16:53:46.069Z,1.92
2022-09-03T16:56:12.776Z,1.52
2022-09-03T16:59:36.766Z,1.30
2022-09-03T17:02:40.010Z,1.80
2022-09-03T17:05:23.054Z,1.67
2022-09-03T17:08:21.038Z,1.60
2022-09-03T17:11:00.063Z,1.70
2022-09-03T17:13:42.051Z,1.77
2022-09-03T17:16:23.652Z,2.10
2022-09-03T17:19:09.991Z,1.65
2022-09-03T17:22:05.677Z,2.22
2022-09-03T17:24:38.175Z,1.70
2022-09-03T17:27:32.309Z,1.50
2022-09-03T17:30:24.214Z,1.73
2022-09-03T17:33:35.089Z,1.73
2022-09-03T17:36:08.521Z,2.22
2022-09-03T17:38:44.036Z,1.70
2022-09-03T17:41:35.680Z,1.58
2022-09-03T17:44:09.303Z,2.78
2022-09-03T17:46:57.938Z,1.75
2022-09-03T17:49:42.579Z,1.77
2022-09-03T17:52:41.541Z,2.25
2022-09-03T17:55:15.869Z,2.37
2022-09-03T17:57:54.294Z,2.25
2022-09-03T18:00:59.093Z,2.03
2022-09-03T18:03:30.306Z,2.60
2022-09-03T18:06:01.456Z,2.35
2022-09-03T18:08:45.124Z,2.33
2022-09-03T18:11:38.164Z,2.30
2022-09-03T18:14:31.155Z,2.40
2022-09-03T18:17:12.433Z,2.60
2022-09-03T18:20:22.388Z,2.22
2022-09-03T18:23:11.264Z,2.60
2022-09-03T18:26:01.267Z,2.60
2022-09-03T18:29:12.840Z,2.30
2022-09-03T18:31:58.569Z,2.47
2022-09-03T18:34:50.303Z,2.70
2022-09-03T18:37:39.611Z,3.17
2022-09-03T18:40:28.885Z,2.50
2022-09-03T18:43:58.753Z,3.05
2022-09-03T18:48:01.633Z,3.05
2022-09-03T18:50:22.907Z,3.40
2022-09-03T18:53:21.225Z,3.80
2022-09-03T18:56:31.550Z,3.90
2022-09-03T19:00:12.285Z,4.57
2022-09-03T19:03:26.786Z,5.25
2022-09-03T19:06:24.524Z,4.35
2022-09-03T19:09:35.915Z,3.95
2022-09-03T19:12:40.029Z,4.28
2022-09-03T19:15:39.947Z,6.20
2022-09-03T19:18:29.770Z,4.93
2022-09-03T19:21:24.295Z,3.45
2022-09-03T19:24:12.018Z,3.95
2022-09-03T19:27:53.030Z,4.28
2022-09-03T19:30:43.329Z,4.80
2022-09-03T19:34:02.838Z,4.55
2022-09-03T19:37:07.952Z,4.25
2022-09-03T19:40:11.615Z,3.70
2022-09-03T19:43:28.039Z,3.72
2022-09-03T19:47:01.319Z,3.33
2022-09-03T19:49:59.886Z,3.92
2022-09-03T19:53:01.427Z,3.10
2022-09-03T19:55:53.014Z,3.47
2022-09-03T19:58:44.424Z,3.12
2022-09-03T20:01:31.963Z,3.03
2022-09-03T20:04:30.693Z,3.33
2022-09-03T20:07:19.380Z,2.63
2022-09-03T20:10:07.112Z,3.05
2022-09-03T20:12:38.845Z,2.83
2022-09-03T20:15:08.573Z,3.15
2022-09-03T20:17:35.275Z,2.53
2022-09-03T20:20:32.804Z,2.85
2022-09-03T20:23:14.546Z,3.53
2022-09-03T20:25:53.410Z,3.22
2022-09-03T20:28:26.208Z,2.83
2022-09-03T20:31:03.930Z,2.75
2022-09-03T20:33:53.697Z,3.10
2022-09-03T20:36:26.371Z,3.35
2022-09-03T20:39:15.626Z,2.67
2022-09-03T20:41:48.426Z,2.35
2022-09-03T20:44:32.078Z,2.35
2022-09-03T20:47:14.147Z,2.83
2022-09-03T20:50:23.467Z,2.80
2022-09-03T20:53:02.206Z,2.45
2022-09-03T20:55:51.035Z,3.05
2022-09-03T20:58:48.097Z,3.05
2022-09-03T21:01:31.046Z,2.33
2022-09-03T21:04:17.671Z,3.10
2022-09-03T21:06:50.334Z,2.35
2022-09-03T21:09:53.130Z,2.72
2022-09-03T21:12:44.811Z,2.65
2022-09-03T21:15:37.480Z,2.97
2022-09-03T21:18:13.573Z,2.72
2022-09-03T21:21:01.624Z,2.67
2022-09-03T21:23:33.218Z,2.92
2022-09-03T21:26:28.412Z,2.65
2022-09-03T21:29:10.453Z,2.62
2022-09-03T21:31:50.582Z,2.55
2022-09-03T21:34:45.632Z,2.62
2022-09-03T21:37:14.351Z,2.92
2022-09-03T21:39:56.502Z,2.97
2022-09-03T21:42:59.937Z,2.62
2022-09-03T21:45:32.367Z,3.12
2022-09-03T21:48:25.258Z,2.78
2022-09-03T21:50:58.426Z,2.70
2022-09-03T21:53:49.439Z,2.45
2022-09-03T21:56:22.016Z,2.90
2022-09-03T21:59:09.628Z,2.65
2022-09-03T22:01:41.993Z,2.37
2022-09-03T22:04:09.707Z,2.53
2022-09-03T22:07:00.164Z,2.60
2022-09-03T22:09:30.735Z,2.53
2022-09-03T22:12:13.775Z,2.72
2022-09-03T22:14:48.245Z,2.50
2022-09-03T22:17:30.245Z,2.92
2022-09-03T22:19:57.205Z,2.35
2022-09-03T22:22:44.213Z,2.62
2022-09-03T22:25:20.285Z,2.87
2022-09-03T22:28:00.925Z,2.25
2022-09-03T22:30:37.525Z,2.30
2022-09-03T22:33:37.046Z,3.70
2022-09-03T22:36:28.070Z,3.33
2022-09-03T22:39:36.461Z,2.72
2022-09-03T22:42:28.317Z,2.83
2022-09-03T22:45:13.629Z,3.28
2022-09-03T22:48:09.565Z,3.10
2022-09-03T22:50:42.346Z,2.97
2022-09-03T22:53:38.335Z,2.80
2022-09-03T22:56:13.154Z,2.42
2022-09-03T22:58:48.126Z,2.50
2022-09-03T23:01:25.142Z,2.67
2022-09-03T23:04:00.067Z,2.40
2022-09-03T23:06:32.658Z,3.12
2022-09-03T23:09:04.645Z,3.28
2022-09-03T23:11:53.113Z,2.60
2022-09-03T23:14:28.527Z,2.67
2022-09-03T23:17:00.603Z,3.47
2022-09-03T23:19:39.107Z,3.22
2022-09-03T23:22:13.378Z,3.33
2022-09-03T23:24:49.467Z,2.78
2022-09-03T23:27:27.355Z,3.03
2022-09-03T23:29:57.046Z,3.25
2022-09-03T23:34:58.370Z,2.45
2022-09-03T23:37:47.205Z,2.92
2022-09-03T23:40:33.197Z,2.60
2022-09-03T23:42:59.836Z,2.58
2022-09-03T23:46:04.124Z,2.47
2022-09-03T23:48:36.839Z,2.50
2022-09-03T23:51:31.246Z,2.67
2022-09-03T23:54:33.135Z,2.42
2022-09-03T23:57:08.451Z,2.78
2022-09-03T23:59:41.214Z,2.50
